createdAt,value
2019-02-08T00:02:23.936Z,10.00
2019-02-08T00:04:51.797Z,10.98
2019-02-08T00:07:19.355Z,9.43
2019-02-08T00:09:46.907Z,10.23
2019-02-08T00:12:14.456Z,10.28
2019-02-08T00:14:42.044Z,11.57
2019-02-08T00:17:09.603Z,11.25
2019-02-08T00:19:37.195Z,9.68
2019-02-08T00:22:05.744Z,9.50
2019-02-08T00:24:33.486Z,10.75
2019-02-08T00:27:01.031Z,9.53
2019-02-08T00:29:28.585Z,10.00
2019-02-08T00:31:56.144Z,10.10
2019-02-08T00:34:23.684Z,10.43
2019-02-08T00:36:51.243Z,10.30
2019-02-08T00:39:18.785Z,9.28
2019-02-08T00:41:46.647Z,9.98
2019-02-08T00:44:14.212Z,10.05
2019-02-08T00:46:41.754Z,9.95
2019-02-08T00:49:09.344Z,9.13
2019-02-08T00:51:36.893Z,10.15
2019-02-08T00:54:04.787Z,10.23
2019-02-08T00:56:32.384Z,10.75
2019-02-08T00:58:59.900Z,10.28
2019-02-08T01:01:27.657Z,9.50
2019-02-08T01:03:55.265Z,9.40
2019-02-08T01:06:22.807Z,9.68
2019-02-08T01:08:50.359Z,13.93
2019-02-08T01:11:17.912Z,9.65
2019-02-08T01:13:45.469Z,9.25
2019-02-08T01:16:13.023Z,9.65
2019-02-08T01:18:40.632Z,9.50
2019-02-08T01:21:08.180Z,9.48
2019-02-08T01:23:40.994Z,12.18
2019-02-08T01:26:04.946Z,10.23
2019-02-08T01:28:32.505Z,10.05
2019-02-08T01:31:00.056Z,8.95
2019-02-08T01:33:27.620Z,10.78
2019-02-08T01:35:55.163Z,9.95
2019-02-08T01:38:22.716Z,9.03
2019-02-08T01:40:50.317Z,8.80
2019-02-08T01:43:17.860Z,10.00
2019-02-08T01:45:45.416Z,8.28
2019-02-08T01:48:12.976Z,10.38
2019-02-08T01:50:40.567Z,8.93
2019-02-08T01:53:08.114Z,8.03
2019-02-08T01:55:35.651Z,8.20
2019-02-08T01:58:03.195Z,9.05
2019-02-08T02:00:31.859Z,10.03
2019-02-08T02:02:59.421Z,8.28
2019-02-08T02:05:26.963Z,8.30
2019-02-08T02:07:54.516Z,9.40
2019-02-08T02:10:23.615Z,10.03
2019-02-08T02:12:51.185Z,18.50
2019-02-08T02:15:18.723Z,11.90
2019-02-08T02:17:46.312Z,8.83
2019-02-08T02:20:21.407Z,8.33
2019-02-08T02:22:48.937Z,8.28
2019-02-08T02:25:16.494Z,10.40
2019-02-08T02:27:44.023Z,11.33
2019-02-08T02:30:19.268Z,8.85
2019-02-08T02:32:46.818Z,11.00
2019-02-08T02:35:14.379Z,9.40
2019-02-08T02:37:41.912Z,7.87
2019-02-08T02:40:10.860Z,7.85
2019-02-08T02:42:38.411Z,10.10
2019-02-08T02:45:07.520Z,8.83
2019-02-08T02:47:35.071Z,9.38
2019-02-08T02:50:02.636Z,9.20
2019-02-08T02:52:30.209Z,8.95
2019-02-08T02:54:57.737Z,9.95
2019-02-08T02:57:25.286Z,16.40
2019-02-08T02:59:52.834Z,8.90
2019-02-08T03:02:20.385Z,8.33
2019-02-08T03:04:47.936Z,9.35
2019-02-08T03:07:15.488Z,10.08
2019-02-08T03:09:43.046Z,8.40
2019-02-08T03:12:10.591Z,10.00
2019-02-08T03:14:38.147Z,9.20
2019-02-08T03:17:05.688Z,9.43
2019-02-08T03:19:33.251Z,9.18
2019-02-08T03:22:00.803Z,9.88
2019-02-08T03:24:28.345Z,8.33
2019-02-08T03:26:55.942Z,8.85
2019-02-08T03:29:23.486Z,9.23
2019-02-08T03:31:51.158Z,8.98
2019-02-08T03:34:18.695Z,7.97
2019-02-08T03:36:46.238Z,8.35
2019-02-08T03:39:13.790Z,8.55
2019-02-08T03:41:41.345Z,9.25
2019-02-08T03:44:08.884Z,9.05
2019-02-08T03:46:36.437Z,8.93
2019-02-08T03:49:03.991Z,11.78
2019-02-08T03:51:31.552Z,11.83
2019-02-08T03:53:59.088Z,8.55
2019-02-08T03:56:26.632Z,8.48
2019-02-08T03:58:54.189Z,8.63
2019-02-08T04:01:21.749Z,8.15
2019-02-08T04:03:49.288Z,8.63
2019-02-08T04:06:16.839Z,8.70
2019-02-08T04:08:44.385Z,8.25
2019-02-08T04:11:11.936Z,11.55
2019-02-08T04:13:39.492Z,10.38
2019-02-08T04:16:07.042Z,9.20
2019-02-08T04:18:34.607Z,8.98
2019-02-08T04:21:02.153Z,10.35
2019-02-08T04:23:29.710Z,11.53
2019-02-08T04:25:57.260Z,12.58
2019-02-08T04:28:24.837Z,11.38
2019-02-08T04:30:52.369Z,14.68
2019-02-08T04:33:19.929Z,15.32
2019-02-08T04:35:47.478Z,10.58
2019-02-08T04:38:15.027Z,17.82
2019-02-08T04:40:42.590Z,21.75
2019-02-08T04:43:10.147Z,19.85
2019-02-08T04:45:37.707Z,19.35
2019-02-08T04:48:05.264Z,18.00
2019-02-08T04:50:32.852Z,17.30
2019-02-08T04:53:00.377Z,16.25
2019-02-08T04:55:28.225Z,20.10
2019-02-08T04:57:55.786Z,21.60
2019-02-08T05:00:24.740Z,20.25
2019-02-08T05:02:52.339Z,20.45
2019-02-08T05:05:19.893Z,20.92
2019-02-08T05:07:47.446Z,21.77
2019-02-08T05:10:16.569Z,20.50
2019-02-08T05:12:44.135Z,22.42
2019-02-08T05:15:11.994Z,18.45
2019-02-08T05:17:39.596Z,19.98
2019-02-08T05:20:08.712Z,21.50
2019-02-08T05:22:36.284Z,20.77
2019-02-08T05:25:04.565Z,22.37
2019-02-08T05:27:32.181Z,20.15
2019-02-08T05:29:59.729Z,22.48
2019-02-08T05:32:27.286Z,21.87
2019-02-08T05:34:54.846Z,20.52
2019-02-08T05:37:22.401Z,19.20
2019-02-08T05:39:49.977Z,20.77
2019-02-08T05:42:17.537Z,21.00
2019-02-08T05:44:45.093Z,19.60
2019-02-08T05:47:12.650Z,22.93
2019-02-08T05:49:40.208Z,21.73
2019-02-08T05:52:07.761Z,22.27
2019-02-08T05:54:35.337Z,24.37
2019-02-08T05:57:02.905Z,22.20
2019-02-08T05:59:30.465Z,26.35
2019-02-08T06:01:58.035Z,22.48
2019-02-08T06:04:25.598Z,23.55
2019-02-08T06:06:53.157Z,23.65
2019-02-08T06:09:20.723Z,25.62
2019-02-08T06:11:48.277Z,26.45
2019-02-08T06:14:15.840Z,26.80
2019-02-08T06:16:43.404Z,28.17
2019-02-08T06:19:10.968Z,30.40
2019-02-08T06:21:38.525Z,31.65
2019-02-08T06:24:06.100Z,30.90
2019-02-08T06:26:33.644Z,34.40
2019-02-08T06:29:01.216Z,32.15
2019-02-08T06:31:28.775Z,38.92
2019-02-08T06:33:57.064Z,36.60
2019-02-08T06:36:24.616Z,44.93
2019-02-08T06:38:52.226Z,45.48
2019-02-08T06:41:19.782Z,45.08
2019-02-08T06:43:47.340Z,54.23
2019-02-08T06:46:14.908Z,51.58
2019-02-08T06:48:42.472Z,58.65
2019-02-08T06:51:10.037Z,57.20
2019-02-08T06:53:37.595Z,62.88
2019-02-08T06:56:05.256Z,63.50
2019-02-08T06:58:34.387Z,65.72
2019-02-08T07:01:09.445Z,68.10
2019-02-08T07:03:47.589Z,67.42
2019-02-08T07:06:19.888Z,73.95
2019-02-08T07:08:49.029Z,71.05
2019-02-08T07:11:18.156Z,80.70
2019-02-08T07:13:47.272Z,80.25
2019-02-08T07:16:16.409Z,81.47
2019-02-08T07:18:48.239Z,82.90
2019-02-08T07:21:29.734Z,85.72
2019-02-08T07:24:13.932Z,86.70
2019-02-08T07:26:43.069Z,87.33
2019-02-08T07:29:30.121Z,90.05
2019-02-08T07:32:05.061Z,86.72
2019-02-08T07:34:34.283Z,89.92
2019-02-08T07:37:06.502Z,89.58
2019-02-08T07:39:38.361Z,93.65
2019-02-08T07:42:23.793Z,89.10
2019-02-08T07:44:56.063Z,90.07
2019-02-08T07:47:31.428Z,88.80
2019-02-08T07:50:00.597Z,89.30
2019-02-08T07:52:38.896Z,87.22
2019-02-08T07:55:09.686Z,90.38
2019-02-08T07:57:38.822Z,91.55
2019-02-08T08:00:31.008Z,90.07
2019-02-08T08:03:05.981Z,88.35
2019-02-08T08:05:35.164Z,93.37
2019-02-08T08:08:06.989Z,89.75
2019-02-08T08:10:39.344Z,90.67
2019-02-08T08:13:17.556Z,89.65
2019-02-08T08:16:01.953Z,85.90
2019-02-08T08:18:31.090Z,88.80
2019-02-08T08:21:05.896Z,83.62
2019-02-08T08:23:41.256Z,91.50
2019-02-08T08:26:10.375Z,91.02
2019-02-08T08:28:39.518Z,88.52
2019-02-08T08:31:08.643Z,90.05
2019-02-08T08:33:37.764Z,85.83
2019-02-08T08:36:09.893Z,89.58
2019-02-08T08:38:39.066Z,87.08
2019-02-08T08:41:17.078Z,92.30
2019-02-08T08:44:01.376Z,85.28
2019-02-08T08:46:39.742Z,94.83
2019-02-08T08:49:08.865Z,93.58
2019-02-08T08:51:37.986Z,94.30
2019-02-08T08:54:13.309Z,93.33
2019-02-08T08:56:42.437Z,95.17
2019-02-08T08:59:26.610Z,95.55
2019-02-08T09:01:55.728Z,94.00
2019-02-08T09:04:43.144Z,93.03
2019-02-08T09:07:28.945Z,93.07
2019-02-08T09:10:00.786Z,93.70
2019-02-08T09:12:35.876Z,95.50
2019-02-08T09:15:04.990Z,93.58
2019-02-08T09:17:37.036Z,86.80
2019-02-08T09:20:21.521Z,90.47
2019-02-08T09:22:53.657Z,87.70
2019-02-08T09:25:31.998Z,91.80
2019-02-08T09:28:16.423Z,86.95
2019-02-08T09:30:57.494Z,92.67
2019-02-08T09:33:35.686Z,87.10
2019-02-08T09:36:04.809Z,91.72
2019-02-08T09:38:36.898Z,84.80
2019-02-08T09:41:08.761Z,91.90
2019-02-08T09:43:43.828Z,89.80
2019-02-08T09:46:12.944Z,89.28
2019-02-08T09:49:00.168Z,88.58
2019-02-08T09:51:38.312Z,89.25
2019-02-08T09:54:10.184Z,88.52
2019-02-08T09:56:39.300Z,86.47
2019-02-08T09:59:25.169Z,84.05
2019-02-08T10:02:11.099Z,83.72
2019-02-08T10:04:52.464Z,82.37
2019-02-08T10:07:21.581Z,83.92
2019-02-08T10:09:50.704Z,84.42
2019-02-08T10:12:37.913Z,74.92
2019-02-08T10:15:23.980Z,81.02
2019-02-08T10:17:56.067Z,73.65
2019-02-08T10:20:41.653Z,79.32
2019-02-08T10:23:25.980Z,73.35
2019-02-08T10:26:05.041Z,79.35
2019-02-08T10:28:46.699Z,72.08
2019-02-08T10:31:18.974Z,77.45
2019-02-08T10:33:57.048Z,68.70
2019-02-08T10:36:35.241Z,75.47
2019-02-08T10:39:19.663Z,67.78
2019-02-08T10:42:05.294Z,71.20
2019-02-08T10:44:37.161Z,67.53
2019-02-08T10:47:21.620Z,69.20
2019-02-08T10:49:56.805Z,66.40
2019-02-08T10:52:25.917Z,68.05
2019-02-08T10:55:07.100Z,64.77
2019-02-08T10:57:36.215Z,68.45
2019-02-08T11:00:17.538Z,64.70
2019-02-08T11:02:55.862Z,66.10
2019-02-08T11:05:43.185Z,64.27
2019-02-08T11:08:14.998Z,62.45
2019-02-08T11:10:49.755Z,62.05
2019-02-08T11:13:18.883Z,62.65
2019-02-08T11:15:54.014Z,60.78
2019-02-08T11:18:38.178Z,56.70
2019-02-08T11:21:05.779Z,61.48
2019-02-08T11:23:33.332Z,55.65
2019-02-08T11:26:00.884Z,59.27
2019-02-08T11:28:28.472Z,59.15
2019-02-08T11:30:56.048Z,56.80
2019-02-08T11:33:23.604Z,58.40
2019-02-08T11:35:51.161Z,51.98
2019-02-08T11:38:18.724Z,55.15
2019-02-08T11:40:46.276Z,50.78
2019-02-08T11:43:14.790Z,56.33
2019-02-08T11:45:42.349Z,53.92
2019-02-08T11:48:16.158Z,51.50
2019-02-08T11:50:49.004Z,52.45
2019-02-08T11:53:16.571Z,50.88
2019-02-08T11:55:44.125Z,51.02
2019-02-08T11:58:11.688Z,50.20
2019-02-08T12:00:40.920Z,49.40
2019-02-08T12:03:08.481Z,48.02
2019-02-08T12:05:36.530Z,49.48
2019-02-08T12:08:04.440Z,43.40
2019-02-08T12:10:32.007Z,47.60
2019-02-08T12:12:59.574Z,44.50
2019-02-08T12:15:27.136Z,46.20
2019-02-08T12:17:54.688Z,46.23
2019-02-08T12:20:22.255Z,44.93
2019-02-08T12:22:49.808Z,45.80
2019-02-08T12:25:17.368Z,44.50
2019-02-08T12:27:44.929Z,43.92
2019-02-08T12:30:17.171Z,40.78
2019-02-08T12:32:44.720Z,42.05
2019-02-08T12:35:12.292Z,39.75
2019-02-08T12:37:39.845Z,41.55
2019-02-08T12:40:08.324Z,42.23
2019-02-08T12:42:35.872Z,42.23
2019-02-08T12:45:04.454Z,40.60
2019-02-08T12:47:32.010Z,40.35
2019-02-08T12:49:59.585Z,39.40
2019-02-08T12:52:27.129Z,38.85
2019-02-08T12:54:54.692Z,39.80
2019-02-08T12:57:22.252Z,34.08
2019-02-08T12:59:49.834Z,38.30
2019-02-08T13:02:17.397Z,34.18
2019-02-08T13:04:44.967Z,37.50
2019-02-08T13:07:12.530Z,37.55
2019-02-08T13:09:40.089Z,36.28
2019-02-08T13:12:07.641Z,36.45
2019-02-08T13:14:35.196Z,36.70
2019-02-08T13:17:04.320Z,35.25
2019-02-08T13:19:31.929Z,35.52
2019-02-08T13:21:59.480Z,34.40
2019-02-08T13:24:27.042Z,30.68
2019-02-08T13:26:54.601Z,34.67
2019-02-08T13:29:22.221Z,30.88
2019-02-08T13:31:50.519Z,33.83
2019-02-08T13:34:18.044Z,31.95
2019-02-08T13:36:45.605Z,32.45
2019-02-08T13:39:13.164Z,33.15
2019-02-08T13:41:40.719Z,31.40
2019-02-08T13:44:08.317Z,31.73
2019-02-08T13:46:35.884Z,31.40
2019-02-08T13:49:03.434Z,30.88
2019-02-08T13:51:30.992Z,29.50
2019-02-08T13:53:58.546Z,29.82
2019-02-08T13:56:26.124Z,28.40
2019-02-08T13:58:53.658Z,30.77
2019-02-08T14:01:21.224Z,28.38
2019-02-08T14:03:48.772Z,27.37
2019-02-08T14:06:16.337Z,29.98
2019-02-08T14:08:43.893Z,29.48
2019-02-08T14:11:11.531Z,27.65
2019-02-08T14:13:40.734Z,27.30
2019-02-08T14:16:08.293Z,25.97
2019-02-08T14:18:35.846Z,27.02
2019-02-08T14:21:04.008Z,26.23
2019-02-08T14:23:31.568Z,26.93
2019-02-08T14:25:59.123Z,26.23
2019-02-08T14:28:26.680Z,27.82
2019-02-08T14:30:54.243Z,26.40
2019-02-08T14:33:21.814Z,25.92
2019-02-08T14:35:49.372Z,25.92
2019-02-08T14:38:18.528Z,26.05
2019-02-08T14:40:46.085Z,26.80
2019-02-08T14:43:13.644Z,25.40
2019-02-08T14:45:41.209Z,25.40
2019-02-08T14:48:08.801Z,24.98
2019-02-08T14:50:36.357Z,25.65
2019-02-08T14:53:03.957Z,23.75
2019-02-08T14:55:31.515Z,24.67
2019-02-08T14:58:00.485Z,25.45
2019-02-08T15:00:28.054Z,23.85
2019-02-08T15:02:55.612Z,24.07
2019-02-08T15:05:23.177Z,24.87
2019-02-08T15:07:50.737Z,24.82
2019-02-08T15:10:19.397Z,24.77
2019-02-08T15:12:46.958Z,23.73
2019-02-08T15:15:14.516Z,21.23
2019-02-08T15:17:42.081Z,23.32
2019-02-08T15:20:14.233Z,21.50
2019-02-08T15:22:41.760Z,22.40
2019-02-08T15:25:09.810Z,26.82
2019-02-08T15:27:37.366Z,26.65
2019-02-08T15:30:18.427Z,23.55
2019-02-08T15:32:46.020Z,19.25
2019-02-08T15:35:15.040Z,17.87
2019-02-08T15:37:42.602Z,20.32
2019-02-08T15:40:11.722Z,20.20
2019-02-08T15:42:39.288Z,20.50
2019-02-08T15:45:08.405Z,18.05
2019-02-08T15:47:35.970Z,15.53
2019-02-08T15:50:03.719Z,16.07
2019-02-08T15:52:31.296Z,14.63
2019-02-08T15:54:58.861Z,17.50
2019-02-08T15:57:31.986Z,14.70
2019-02-08T15:59:55.644Z,13.43
2019-02-08T16:02:23.208Z,14.68
2019-02-08T16:04:50.790Z,14.50
2019-02-08T16:07:18.357Z,15.00
2019-02-08T16:09:45.905Z,17.32
2019-02-08T16:12:13.478Z,13.62
2019-02-08T16:14:41.028Z,12.82
2019-02-08T16:17:08.601Z,11.73
2019-02-08T16:19:36.167Z,13.00
2019-02-08T16:22:04.030Z,14.68
2019-02-08T16:24:31.594Z,15.72
2019-02-08T16:26:59.157Z,14.63
2019-02-08T16:29:26.718Z,17.92
2019-02-08T16:31:54.271Z,15.30
2019-02-08T16:34:21.885Z,14.85
2019-02-08T16:36:49.441Z,14.87
2019-02-08T16:39:16.997Z,12.33
2019-02-08T16:41:44.556Z,12.43
2019-02-08T16:44:12.121Z,13.25
2019-02-08T16:46:39.741Z,13.08
2019-02-08T16:49:07.305Z,16.30
2019-02-08T16:51:34.845Z,13.58
2019-02-08T16:54:02.405Z,12.37
2019-02-08T16:56:49.328Z,11.50
2019-02-08T16:59:16.873Z,14.93
2019-02-08T17:01:44.473Z,13.50
2019-02-08T17:04:12.068Z,11.70
2019-02-08T17:06:39.684Z,12.95
2019-02-08T17:09:08.353Z,11.15
2019-02-08T17:11:35.906Z,11.80
2019-02-08T17:14:03.460Z,13.85
2019-02-08T17:16:31.011Z,13.18
2019-02-08T17:18:58.565Z,11.65
2019-02-08T17:21:26.113Z,15.23
2019-02-08T17:23:53.670Z,11.83
2019-02-08T17:26:21.223Z,12.58
2019-02-08T17:28:48.783Z,13.48
2019-02-08T17:31:16.414Z,11.85
2019-02-08T17:33:43.983Z,11.57
2019-02-08T17:36:11.536Z,14.35
2019-02-08T17:38:39.105Z,10.28
2019-02-08T17:41:06.656Z,13.78
2019-02-08T17:43:34.208Z,12.40
2019-02-08T17:46:01.757Z,14.53
2019-02-08T17:48:29.321Z,12.55
2019-02-08T17:50:56.887Z,13.25
2019-02-08T17:53:24.451Z,16.25
2019-02-08T17:55:52.001Z,14.25
2019-02-08T17:58:19.559Z,15.23
2019-02-08T18:00:48.683Z,17.48
2019-02-08T18:03:16.249Z,16.05
2019-02-08T18:05:43.800Z,17.02
2019-02-08T18:08:11.369Z,13.80
2019-02-08T18:10:38.926Z,18.05
2019-02-08T18:13:06.491Z,16.30
2019-02-08T18:15:34.048Z,21.68
2019-02-08T18:18:02.014Z,15.45
2019-02-08T18:20:30.870Z,15.95
2019-02-08T18:23:10.928Z,16.35
2019-02-08T18:25:38.494Z,12.53
2019-02-08T18:28:10.855Z,14.80
2019-02-08T18:30:35.474Z,16.15
2019-02-08T18:33:03.026Z,14.78
2019-02-08T18:35:30.592Z,16.90
2019-02-08T18:37:58.143Z,13.28
2019-02-08T18:40:25.700Z,13.93
2019-02-08T18:42:53.254Z,14.98
2019-02-08T18:45:21.829Z,16.52
2019-02-08T18:47:49.388Z,19.87
2019-02-08T18:50:23.823Z,22.65
2019-02-08T18:52:51.390Z,18.23
2019-02-08T18:55:18.948Z,16.42
2019-02-08T18:57:46.504Z,22.80
2019-02-08T19:00:15.560Z,20.15
2019-02-08T19:02:43.165Z,15.45
2019-02-08T19:05:11.323Z,16.02
2019-02-08T19:07:38.871Z,18.32
2019-02-08T19:10:07.980Z,17.77
2019-02-08T19:12:35.534Z,15.75
2019-02-08T19:15:03.091Z,17.35
2019-02-08T19:17:30.650Z,15.88
2019-02-08T19:19:58.209Z,18.57
2019-02-08T19:22:25.761Z,16.82
2019-02-08T19:24:53.411Z,17.77
2019-02-08T19:27:20.930Z,15.50
2019-02-08T19:29:48.478Z,15.90
2019-02-08T19:32:16.034Z,14.30
2019-02-08T19:34:43.602Z,14.47
2019-02-08T19:37:11.155Z,14.45
2019-02-08T19:39:38.710Z,14.18
2019-02-08T19:42:06.260Z,13.28
2019-02-08T19:44:33.813Z,16.73
2019-02-08T19:47:01.375Z,13.45
2019-02-08T19:49:28.932Z,15.32
2019-02-08T19:51:56.486Z,13.15
2019-02-08T19:54:24.090Z,16.25
2019-02-08T19:56:51.636Z,11.97
2019-02-08T19:59:19.198Z,13.65
2019-02-08T20:01:46.774Z,15.20
2019-02-08T20:04:14.381Z,14.70
2019-02-08T20:06:41.934Z,16.70
2019-02-08T20:09:09.677Z,15.72
2019-02-08T20:11:37.246Z,15.23
2019-02-08T20:14:04.803Z,15.98
2019-02-08T20:16:32.360Z,18.02
2019-02-08T20:18:59.917Z,14.28
2019-02-08T20:21:28.824Z,14.18
2019-02-08T20:23:56.397Z,12.13
2019-02-08T20:26:23.955Z,17.45
2019-02-08T20:28:51.506Z,14.00
2019-02-08T20:31:20.683Z,12.55
2019-02-08T20:33:48.405Z,15.10
2019-02-08T20:36:15.956Z,12.50
2019-02-08T20:38:43.513Z,11.50
2019-02-08T20:41:11.064Z,14.53
2019-02-08T20:43:38.620Z,14.70
2019-02-08T20:46:06.190Z,12.03
2019-02-08T20:48:33.747Z,10.65
2019-02-08T20:51:01.310Z,12.28
2019-02-08T20:53:29.799Z,11.12
2019-02-08T20:55:57.362Z,14.33
2019-02-08T20:58:24.911Z,11.48
2019-02-08T21:00:52.769Z,11.33
2019-02-08T21:03:20.346Z,12.93
2019-02-08T21:05:47.898Z,12.03
2019-02-08T21:08:15.450Z,10.93
2019-02-08T21:10:42.998Z,13.40
2019-02-08T21:13:10.559Z,10.82
2019-02-08T21:15:38.101Z,10.38
2019-02-08T21:18:06.072Z,11.60
2019-02-08T21:20:33.633Z,10.88
2019-02-08T21:23:01.185Z,11.00
2019-02-08T21:25:29.745Z,11.48
2019-02-08T21:27:57.293Z,10.93
2019-02-08T21:30:24.858Z,10.55
2019-02-08T21:32:52.412Z,12.25
2019-02-08T21:35:19.961Z,13.08
2019-02-08T21:37:47.554Z,11.95
2019-02-08T21:40:16.669Z,11.25
2019-02-08T21:42:44.224Z,12.23
2019-02-08T21:45:13.385Z,12.20
2019-02-08T21:47:40.937Z,11.05
2019-02-08T21:50:10.209Z,11.90
2019-02-08T21:52:37.777Z,10.68
2019-02-08T21:55:06.537Z,10.68
2019-02-08T21:57:34.080Z,11.88
2019-02-08T22:00:01.658Z,11.08
2019-02-08T22:02:29.200Z,10.58
2019-02-08T22:04:56.768Z,11.40
2019-02-08T22:07:24.319Z,11.80
2019-02-08T22:09:51.881Z,11.43
2019-02-08T22:12:19.453Z,10.88
2019-02-08T22:14:47.013Z,10.63
2019-02-08T22:17:14.573Z,10.48
2019-02-08T22:19:42.141Z,10.20
2019-02-08T22:22:09.706Z,10.30
2019-02-08T22:24:37.275Z,10.55
2019-02-08T22:27:04.833Z,10.98
2019-02-08T22:29:32.391Z,9.73
2019-02-08T22:31:59.949Z,11.60
2019-02-08T22:34:27.494Z,11.40
2019-02-08T22:36:55.082Z,12.47
2019-02-08T22:39:22.637Z,11.68
2019-02-08T22:41:50.207Z,12.58
2019-02-08T22:44:17.757Z,10.25
2019-02-08T22:46:45.361Z,11.78
2019-02-08T22:49:12.916Z,10.10
2019-02-08T22:51:41.991Z,10.90
2019-02-08T22:54:09.632Z,14.15
2019-02-08T22:56:37.196Z,11.97
2019-02-08T22:59:04.953Z,11.78
2019-02-08T23:01:32.510Z,10.85
2019-02-08T23:04:00.069Z,10.88
2019-02-08T23:06:27.623Z,10.30
2019-02-08T23:08:55.176Z,10.25
2019-02-08T23:11:22.732Z,11.30
2019-02-08T23:13:50.280Z,11.80
2019-02-08T23:16:17.844Z,10.15
2019-02-08T23:18:45.391Z,11.05
2019-02-08T23:21:12.945Z,11.15
2019-02-08T23:23:40.504Z,10.85
2019-02-08T23:26:08.063Z,10.05
2019-02-08T23:28:35.627Z,12.35
2019-02-08T23:31:03.186Z,11.35
2019-02-08T23:33:30.728Z,11.97
2019-02-08T23:35:58.317Z,10.68
2019-02-08T23:38:25.868Z,10.60
2019-02-08T23:40:53.435Z,9.28
2019-02-08T23:43:20.986Z,10.58
2019-02-08T23:45:48.539Z,10.75
2019-02-08T23:48:16.093Z,10.48
2019-02-08T23:50:43.677Z,10.00
2019-02-08T23:53:11.224Z,11.93
2019-02-08T23:55:38.788Z,11.48
2019-02-08T23:58:06.343Z,11.30
